createdAt,value
2017-03-31T00:00:39.345Z,1017.46
2017-03-31T00:01:48.603Z,1017.44
2017-03-31T00:02:57.605Z,1017.41
2017-03-31T00:04:06.575Z,1017.43
2017-03-31T00:05:15.528Z,1017.41
2017-03-31T00:06:24.485Z,1017.41
2017-03-31T00:07:33.692Z,1017.35
2017-03-31T00:08:42.649Z,1017.38
2017-03-31T00:09:51.605Z,1017.32
2017-03-31T00:11:00.565Z,1017.37
2017-03-31T00:12:09.524Z,1017.37
2017-03-31T00:13:18.781Z,1017.33
2017-03-31T00:14:27.739Z,1017.31
2017-03-31T00:15:36.693Z,1017.32
2017-03-31T00:16:45.730Z,1017.34
2017-03-31T00:17:54.688Z,1017.29
2017-03-31T00:19:03.895Z,1017.29
2017-03-31T00:20:12.851Z,1017.27
2017-03-31T00:21:21.808Z,1017.29
2017-03-31T00:22:30.771Z,1017.27
2017-03-31T00:23:39.732Z,1017.27
2017-03-31T00:24:49.077Z,1017.27
2017-03-31T00:25:58.123Z,1017.24
2017-03-31T00:27:07.078Z,1017.25
2017-03-31T00:28:16.039Z,1017.25
2017-03-31T00:29:24.991Z,1017.23
2017-03-31T00:30:34.247Z,1017.23
2017-03-31T00:31:43.292Z,1017.25
2017-03-31T00:32:52.332Z,1017.23
2017-03-31T00:34:01.295Z,1017.2
2017-03-31T00:35:10.250Z,1017.22
2017-03-31T00:36:19.509Z,1017.16
2017-03-31T00:37:28.467Z,1017.14
2017-03-31T00:38:37.517Z,1017.15
2017-03-31T00:39:46.477Z,1017.08
2017-03-31T00:40:55.440Z,1017.09
2017-03-31T00:42:04.698Z,1017.04
2017-03-31T00:43:13.653Z,1017.08
2017-03-31T00:44:22.607Z,1017.02
2017-03-31T00:45:31.562Z,1017.04
2017-03-31T00:46:40.607Z,1017.04
2017-03-31T00:47:49.950Z,1016.99
2017-03-31T00:48:58.908Z,1017.03
2017-03-31T00:50:07.952Z,1016.94
2017-03-31T00:51:16.907Z,1016.97
2017-03-31T00:52:25.864Z,1016.92
2017-03-31T00:53:35.068Z,1016.9
2017-03-31T00:54:44.022Z,1016.92
2017-03-31T00:55:52.979Z,1016.92
2017-03-31T00:57:01.938Z,1016.88
2017-03-31T00:58:10.897Z,1016.88
2017-03-31T00:59:20.241Z,1016.84
2017-03-31T01:00:29.201Z,1016.85
2017-03-31T01:01:38.163Z,1016.87
2017-03-31T01:02:47.121Z,1016.83
2017-03-31T01:03:56.085Z,1016.78
2017-03-31T01:05:05.620Z,1016.79
2017-03-31T01:06:14.609Z,1016.78
2017-03-31T01:07:23.569Z,1016.79
2017-03-31T01:08:32.520Z,1016.79
2017-03-31T01:09:41.479Z,1016.76
2017-03-31T01:10:50.687Z,1016.77
2017-03-31T01:11:59.650Z,1016.74
2017-03-31T01:13:08.607Z,1016.74
2017-03-31T01:14:17.565Z,1016.71
2017-03-31T01:15:26.521Z,1016.72
2017-03-31T01:16:35.779Z,1016.73
2017-03-31T01:17:44.734Z,1016.73
2017-03-31T01:18:53.691Z,1016.73
2017-03-31T01:20:02.642Z,1016.7
2017-03-31T01:21:11.600Z,1016.72
2017-03-31T01:22:20.804Z,1016.7
2017-03-31T01:23:29.767Z,1016.7
2017-03-31T01:24:38.815Z,1016.66
2017-03-31T01:25:47.769Z,1016.67
2017-03-31T01:26:56.723Z,1016.67
2017-03-31T01:28:05.951Z,1016.64
2017-03-31T01:29:14.908Z,1016.62
2017-03-31T01:30:23.861Z,1016.59
2017-03-31T01:31:32.817Z,1016.6
2017-03-31T01:32:41.771Z,1016.54
2017-03-31T01:33:50.980Z,1016.58
2017-03-31T01:34:59.947Z,1016.54
2017-03-31T01:36:08.905Z,1016.56
2017-03-31T01:37:17.859Z,1016.52
2017-03-31T01:38:26.815Z,1016.56
2017-03-31T01:39:36.080Z,1016.53
2017-03-31T01:40:45.038Z,1016.5
2017-03-31T01:41:53.991Z,1016.51
2017-03-31T01:43:02.948Z,1016.51
2017-03-31T01:44:11.898Z,1016.5
2017-03-31T01:45:21.101Z,1016.47
2017-03-31T01:46:30.064Z,1016.46
2017-03-31T01:47:39.023Z,1016.45
2017-03-31T01:48:47.976Z,1016.41
2017-03-31T01:49:56.937Z,1016.46
2017-03-31T01:51:06.198Z,1016.41
2017-03-31T01:52:15.159Z,1016.39
2017-03-31T01:53:24.116Z,1016.36
2017-03-31T01:54:33.069Z,1016.37
2017-03-31T01:55:42.027Z,1016.34
2017-03-31T01:56:51.283Z,1016.35
2017-03-31T01:58:00.236Z,1016.33
2017-03-31T01:59:09.198Z,1016.34
2017-03-31T02:00:18.151Z,1016.31
2017-03-31T02:01:27.118Z,1016.29
2017-03-31T02:02:36.370Z,1016.26
2017-03-31T02:03:45.326Z,1016.31
2017-03-31T02:04:54.279Z,1016.31
2017-03-31T02:06:03.240Z,1016.29
2017-03-31T02:07:12.194Z,1016.23
2017-03-31T02:08:21.449Z,1016.24
2017-03-31T02:09:30.408Z,1016.24
2017-03-31T02:10:39.372Z,1016.24
2017-03-31T02:11:48.326Z,1016.22
2017-03-31T02:12:57.280Z,1016.19
2017-03-31T02:14:06.541Z,1016.19
2017-03-31T02:15:15.499Z,1016.18
2017-03-31T02:16:24.452Z,1016.19
2017-03-31T02:17:33.421Z,1016.17
2017-03-31T02:18:42.382Z,1016.15
2017-03-31T02:19:51.646Z,1016.19
2017-03-31T02:21:01.289Z,1016.15
2017-03-31T02:22:10.283Z,1016.13
2017-03-31T02:23:19.238Z,1016.13
2017-03-31T02:24:28.195Z,1016.12
2017-03-31T02:25:37.452Z,1016.1
2017-03-31T02:26:46.408Z,1016.08
2017-03-31T02:27:55.364Z,1016.11
2017-03-31T02:29:04.317Z,1016.1
2017-03-31T02:30:13.270Z,1016.12
2017-03-31T02:31:22.528Z,1016.05
2017-03-31T02:32:31.483Z,1016.04
2017-03-31T02:33:40.444Z,1016.06
2017-03-31T02:34:49.402Z,1016.01
2017-03-31T02:35:58.362Z,1016.02
2017-03-31T02:37:07.622Z,1016.02
2017-03-31T02:38:16.581Z,1016.01
2017-03-31T02:39:25.550Z,1015.99
2017-03-31T02:40:34.506Z,1015.96
2017-03-31T02:41:43.458Z,1015.98
2017-03-31T02:42:52.714Z,1015.95
2017-03-31T02:44:01.678Z,1015.93
2017-03-31T02:45:10.633Z,1015.95
2017-03-31T02:46:19.589Z,1015.94
2017-03-31T02:47:28.543Z,1015.9
2017-03-31T02:48:37.796Z,1015.91
2017-03-31T02:49:46.843Z,1015.85
2017-03-31T02:50:55.807Z,1015.94
2017-03-31T02:52:04.761Z,1015.9
2017-03-31T02:53:13.720Z,1015.9
2017-03-31T02:54:22.974Z,1015.91
2017-03-31T02:55:31.928Z,1015.85
2017-03-31T02:56:40.896Z,1015.81
2017-03-31T02:57:49.861Z,1015.86
2017-03-31T02:58:58.817Z,1015.83
2017-03-31T03:00:08.076Z,1015.81
2017-03-31T03:01:17.038Z,1015.84
2017-03-31T03:02:26.003Z,1015.82
2017-03-31T03:03:34.962Z,1015.86
2017-03-31T03:04:43.924Z,1015.82
2017-03-31T03:05:53.188Z,1015.8
2017-03-31T03:07:02.142Z,1015.81
2017-03-31T03:08:11.104Z,1015.87
2017-03-31T03:09:20.064Z,1015.84
2017-03-31T03:10:29.019Z,1015.82
2017-03-31T03:11:38.275Z,1015.85
2017-03-31T03:12:47.233Z,1015.83
2017-03-31T03:13:56.194Z,1015.81
2017-03-31T03:15:05.232Z,1015.86
2017-03-31T03:16:14.186Z,1015.8
2017-03-31T03:17:23.443Z,1015.82
2017-03-31T03:18:32.411Z,1015.83
2017-03-31T03:19:41.367Z,1015.83
2017-03-31T03:20:50.324Z,1015.81
2017-03-31T03:21:59.280Z,1015.82
2017-03-31T03:23:08.543Z,1015.82
2017-03-31T03:24:17.495Z,1015.8
2017-03-31T03:25:26.451Z,1015.81
2017-03-31T03:26:35.409Z,1015.79
2017-03-31T03:27:44.365Z,1015.75
2017-03-31T03:28:53.622Z,1015.75
2017-03-31T03:30:02.574Z,1015.76
2017-03-31T03:31:11.540Z,1015.74
2017-03-31T03:32:20.496Z,1015.72
2017-03-31T03:33:29.456Z,1015.72
2017-03-31T03:34:38.717Z,1015.73
2017-03-31T03:35:47.675Z,1015.7
2017-03-31T03:36:56.632Z,1015.7
2017-03-31T03:38:05.588Z,1015.67
2017-03-31T03:39:14.541Z,1015.68
2017-03-31T03:40:23.743Z,1015.64
2017-03-31T03:41:32.696Z,1015.68
2017-03-31T03:42:41.657Z,1015.64
2017-03-31T03:43:50.609Z,1015.64
2017-03-31T03:44:59.566Z,1015.6
2017-03-31T03:46:08.824Z,1015.62
2017-03-31T03:47:17.782Z,1015.58
2017-03-31T03:48:26.771Z,1015.61
2017-03-31T03:49:35.721Z,1015.56
2017-03-31T03:50:50.941Z,1015.56
2017-03-31T03:52:00.198Z,1015.57
2017-03-31T03:53:09.151Z,1015.55
2017-03-31T03:54:18.110Z,1015.53
2017-03-31T03:55:27.066Z,1015.58
2017-03-31T03:56:36.020Z,1015.5
2017-03-31T03:57:45.229Z,1015.51
2017-03-31T03:58:54.222Z,1015.48
2017-03-31T04:00:03.172Z,1015.48
2017-03-31T04:01:12.130Z,1015.48
2017-03-31T04:02:21.084Z,1015.46
2017-03-31T04:03:30.318Z,1015.45
2017-03-31T04:04:39.271Z,1015.48
2017-03-31T04:05:48.262Z,1015.49
2017-03-31T04:06:57.215Z,1015.48
2017-03-31T04:08:06.174Z,1015.47
2017-03-31T04:09:15.432Z,1015.47
2017-03-31T04:10:24.392Z,1015.46
2017-03-31T04:11:33.350Z,1015.46
2017-03-31T04:12:42.392Z,1015.45
2017-03-31T04:13:51.998Z,1015.47
2017-03-31T04:15:01.209Z,1015.44
2017-03-31T04:16:10.165Z,1015.43
2017-03-31T04:17:19.132Z,1015.44
2017-03-31T04:18:28.083Z,1015.43
2017-03-31T04:19:37.039Z,1015.46
2017-03-31T04:20:46.339Z,1015.47
2017-03-31T04:21:55.297Z,1015.46
2017-03-31T04:23:04.257Z,1015.45
2017-03-31T04:24:13.212Z,1015.45
2017-03-31T04:25:22.165Z,1015.47
2017-03-31T04:26:31.375Z,1015.45
2017-03-31T04:27:40.332Z,1015.48
2017-03-31T04:28:49.370Z,1015.44
2017-03-31T04:29:58.329Z,1015.42
2017-03-31T04:31:07.278Z,1015.44
2017-03-31T04:32:16.483Z,1015.44
2017-03-31T04:33:25.437Z,1015.44
2017-03-31T04:34:34.390Z,1015.43
2017-03-31T04:35:43.347Z,1015.44
2017-03-31T04:36:52.306Z,1015.47
2017-03-31T04:38:01.512Z,1015.48
2017-03-31T04:39:10.466Z,1015.46
2017-03-31T04:40:19.417Z,1015.44
2017-03-31T04:41:28.370Z,1015.42
2017-03-31T04:42:37.412Z,1015.39
2017-03-31T04:43:46.614Z,1015.38
2017-03-31T04:44:55.572Z,1015.39
2017-03-31T04:46:04.615Z,1015.41
2017-03-31T04:47:13.659Z,1015.42
2017-03-31T04:48:22.617Z,1015.4
2017-03-31T04:49:31.822Z,1015.45
2017-03-31T04:50:40.862Z,1015.38
2017-03-31T04:51:49.814Z,1015.41
2017-03-31T04:52:58.773Z,1015.38
2017-03-31T04:54:07.730Z,1015.38
2017-03-31T04:55:16.940Z,1015.38
2017-03-31T04:56:25.921Z,1015.39
2017-03-31T04:57:34.881Z,1015.37
2017-03-31T04:58:43.843Z,1015.36
2017-03-31T04:59:52.799Z,1015.41
2017-03-31T05:01:02.008Z,1015.39
2017-03-31T05:02:11.380Z,1015.4
2017-03-31T05:03:20.437Z,1015.43
2017-03-31T05:04:29.397Z,1015.42
2017-03-31T05:05:38.359Z,1015.44
2017-03-31T05:06:47.567Z,1015.4
2017-03-31T05:07:56.523Z,1015.38
2017-03-31T05:09:05.888Z,1015.42
2017-03-31T05:10:14.933Z,1015.41
2017-03-31T05:11:23.887Z,1015.35
2017-03-31T05:12:33.092Z,1015.39
2017-03-31T05:13:42.045Z,1015.39
2017-03-31T05:14:50.999Z,1015.41
2017-03-31T05:15:59.956Z,1015.41
2017-03-31T05:17:08.912Z,1015.42
2017-03-31T05:18:18.117Z,1015.41
2017-03-31T05:19:27.069Z,1015.42
2017-03-31T05:20:36.034Z,1015.41
2017-03-31T05:21:45.079Z,1015.4
2017-03-31T05:22:54.035Z,1015.43
2017-03-31T05:24:03.246Z,1015.37
2017-03-31T05:25:12.200Z,1015.4
2017-03-31T05:26:21.155Z,1015.42
2017-03-31T05:27:30.139Z,1015.42
2017-03-31T05:28:39.098Z,1015.37
2017-03-31T05:29:48.305Z,1015.4
2017-03-31T05:30:57.252Z,1015.36
2017-03-31T05:32:06.205Z,1015.37
2017-03-31T05:33:15.162Z,1015.39
2017-03-31T05:34:24.116Z,1015.38
2017-03-31T05:35:33.320Z,1015.43
2017-03-31T05:36:42.278Z,1015.42
2017-03-31T05:37:51.234Z,1015.4
2017-03-31T05:39:00.602Z,1015.43
2017-03-31T05:40:09.562Z,1015.41
2017-03-31T05:41:18.768Z,1015.38
2017-03-31T05:42:27.726Z,1015.36
2017-03-31T05:43:36.683Z,1015.38
2017-03-31T05:44:45.724Z,1015.39
2017-03-31T05:45:54.681Z,1015.38
2017-03-31T05:47:03.973Z,1015.39
2017-03-31T05:48:12.929Z,1015.37
2017-03-31T05:49:21.881Z,1015.4
2017-03-31T05:50:30.837Z,1015.35
2017-03-31T05:51:39.881Z,1015.37
2017-03-31T05:52:49.125Z,1015.36
2017-03-31T05:53:58.168Z,1015.34
2017-03-31T05:55:07.128Z,1015.32
2017-03-31T05:56:16.088Z,1015.32
2017-03-31T05:57:25.050Z,1015.31
2017-03-31T05:58:34.258Z,1015.33
2017-03-31T05:59:43.220Z,1015.32
2017-03-31T06:00:52.269Z,1015.33
2017-03-31T06:02:01.229Z,1015.35
2017-03-31T06:03:10.179Z,1015.32
2017-03-31T06:04:19.384Z,1015.3
2017-03-31T06:05:28.341Z,1015.29
2017-03-31T06:06:37.303Z,1015.32
2017-03-31T06:07:46.347Z,1015.28
2017-03-31T06:08:55.308Z,1015.3
2017-03-31T06:10:04.519Z,1015.27
2017-03-31T06:11:13.475Z,1015.29
2017-03-31T06:12:22.431Z,1015.27
2017-03-31T06:13:31.384Z,1015.29
2017-03-31T06:14:40.429Z,1015.24
2017-03-31T06:15:49.636Z,1015.26
2017-03-31T06:16:58.922Z,1015.24
2017-03-31T06:18:07.882Z,1015.23
2017-03-31T06:19:16.839Z,1015.24
2017-03-31T06:20:25.795Z,1015.26
2017-03-31T06:21:35.027Z,1015.24
2017-03-31T06:22:43.981Z,1015.24
2017-03-31T06:23:52.935Z,1015.22
2017-03-31T06:25:01.888Z,1015.23
2017-03-31T06:26:10.866Z,1015.23
2017-03-31T06:27:20.084Z,1015.22
2017-03-31T06:28:29.038Z,1015.17
2017-03-31T06:29:38.081Z,1015.23
2017-03-31T06:30:47.039Z,1015.23
2017-03-31T06:31:55.993Z,1015.22
2017-03-31T06:33:05.208Z,1015.2
2017-03-31T06:34:14.173Z,1015.2
2017-03-31T06:35:23.136Z,1015.23
2017-03-31T06:36:32.092Z,1015.18
2017-03-31T06:37:41.043Z,1015.21
2017-03-31T06:38:50.247Z,1015.2
2017-03-31T06:39:59.210Z,1015.16
2017-03-31T06:41:08.167Z,1015.17
2017-03-31T06:42:17.123Z,1015.18
2017-03-31T06:43:26.079Z,1015.17
2017-03-31T06:44:35.283Z,1015.15
2017-03-31T06:45:44.273Z,1015.12
2017-03-31T06:46:53.229Z,1015.13
2017-03-31T06:48:02.181Z,1015.12
2017-03-31T06:49:11.145Z,1015.14
2017-03-31T06:50:20.352Z,1015.12
2017-03-31T06:51:29.305Z,1015.1
2017-03-31T06:52:38.347Z,1015.11
2017-03-31T06:53:47.304Z,1015.11
2017-03-31T06:54:56.259Z,1015.11
2017-03-31T06:56:05.551Z,1015.15
2017-03-31T06:57:14.516Z,1015.07
2017-03-31T06:58:23.472Z,1015.1
2017-03-31T06:59:32.434Z,1015.05
2017-03-31T07:00:41.389Z,1015.04
2017-03-31T07:01:50.594Z,1015.03
2017-03-31T07:02:59.559Z,1015.02
2017-03-31T07:04:08.517Z,1015.03
2017-03-31T07:05:17.472Z,1015.02
2017-03-31T07:06:26.426Z,1014.99
2017-03-31T07:07:35.641Z,1014.98
2017-03-31T07:08:44.616Z,1015.03
2017-03-31T07:09:53.572Z,1015.04
2017-03-31T07:11:02.534Z,1015.03
2017-03-31T07:12:11.580Z,1015.04
2017-03-31T07:13:20.789Z,1015
2017-03-31T07:14:29.751Z,1015.02
2017-03-31T07:15:38.710Z,1015
2017-03-31T07:16:47.667Z,1014.98
2017-03-31T07:17:56.797Z,1015
2017-03-31T07:19:06.013Z,1014.94
2017-03-31T07:20:15.066Z,1015.02
2017-03-31T07:21:24.025Z,1014.96
2017-03-31T07:22:32.985Z,1014.97
2017-03-31T07:23:41.945Z,1014.96
2017-03-31T07:24:51.150Z,1014.94
2017-03-31T07:26:00.106Z,1014.91
2017-03-31T07:27:09.066Z,1014.92
2017-03-31T07:28:18.026Z,1014.95
2017-03-31T07:29:27.004Z,1014.95
2017-03-31T07:30:36.210Z,1014.93
2017-03-31T07:31:45.167Z,1014.91
2017-03-31T07:32:54.211Z,1014.91
2017-03-31T07:34:03.170Z,1014.89
2017-03-31T07:35:12.136Z,1014.88
2017-03-31T07:36:21.343Z,1014.84
2017-03-31T07:37:30.302Z,1014.83
2017-03-31T07:38:39.348Z,1014.81
2017-03-31T07:39:48.300Z,1014.83
2017-03-31T07:40:57.341Z,1014.83
2017-03-31T07:42:06.550Z,1014.82
2017-03-31T07:43:15.519Z,1014.83
2017-03-31T07:44:24.485Z,1014.8
2017-03-31T07:45:33.536Z,1014.79
2017-03-31T07:46:42.488Z,1014.8
2017-03-31T07:47:51.847Z,1014.83
2017-03-31T07:49:00.806Z,1014.81
2017-03-31T07:50:09.769Z,1014.79
2017-03-31T07:51:18.730Z,1014.78
2017-03-31T07:52:27.686Z,1014.77
2017-03-31T07:53:37.225Z,1014.8
2017-03-31T07:54:46.182Z,1014.8
2017-03-31T07:55:55.140Z,1014.77
2017-03-31T07:57:04.099Z,1014.76
2017-03-31T07:58:13.145Z,1014.73
2017-03-31T07:59:22.355Z,1014.78
2017-03-31T08:00:31.310Z,1014.75
2017-03-31T08:01:40.271Z,1014.7
2017-03-31T08:02:49.228Z,1014.71
2017-03-31T08:03:58.188Z,1014.68
2017-03-31T08:05:07.400Z,1014.67
2017-03-31T08:06:16.359Z,1014.66
2017-03-31T08:07:25.402Z,1014.64
2017-03-31T08:08:34.358Z,1014.66
2017-03-31T08:09:43.316Z,1014.67
2017-03-31T08:10:52.522Z,1014.65
2017-03-31T08:12:01.570Z,1014.72
2017-03-31T08:13:10.527Z,1014.68
2017-03-31T08:14:19.487Z,1014.7
2017-03-31T08:15:28.458Z,1014.64
2017-03-31T08:16:37.671Z,1014.66
2017-03-31T08:17:46.638Z,1014.68
2017-03-31T08:18:55.596Z,1014.65
2017-03-31T08:20:04.558Z,1014.64
2017-03-31T08:21:13.524Z,1014.66
2017-03-31T08:22:22.738Z,1014.61
2017-03-31T08:23:31.709Z,1014.62
2017-03-31T08:24:40.760Z,1014.63
2017-03-31T08:25:49.718Z,1014.62
2017-03-31T08:26:58.679Z,1014.62
2017-03-31T08:28:07.888Z,1014.65
2017-03-31T08:29:16.845Z,1014.64
2017-03-31T08:30:25.799Z,1014.67
2017-03-31T08:31:34.762Z,1014.67
2017-03-31T08:32:43.721Z,1014.64
2017-03-31T08:33:53.017Z,1014.63
2017-03-31T08:35:02.059Z,1014.59
2017-03-31T08:36:11.109Z,1014.64
2017-03-31T08:37:20.071Z,1014.61
2017-03-31T08:38:29.031Z,1014.6
2017-03-31T08:39:38.239Z,1014.63
2017-03-31T08:40:47.204Z,1014.6
2017-03-31T08:41:56.246Z,1014.57
2017-03-31T08:43:05.201Z,1014.58
2017-03-31T08:44:14.159Z,1014.57
2017-03-31T08:45:23.373Z,1014.52
2017-03-31T08:46:32.370Z,1014.54
2017-03-31T08:47:41.422Z,1014.53
2017-03-31T08:48:50.387Z,1014.54
2017-03-31T08:49:59.344Z,1014.56
2017-03-31T08:51:08.557Z,1014.49
2017-03-31T08:52:17.516Z,1014.53
2017-03-31T08:53:26.477Z,1014.53
2017-03-31T08:54:35.438Z,1014.51
2017-03-31T08:55:44.407Z,1014.46
2017-03-31T08:56:53.669Z,1014.52
2017-03-31T08:58:02.627Z,1014.52
2017-03-31T08:59:11.589Z,1014.51
2017-03-31T09:00:20.549Z,1014.5
2017-03-31T09:01:29.513Z,1014.5
2017-03-31T09:02:38.728Z,1014.48
2017-03-31T09:03:47.685Z,1014.48
2017-03-31T09:04:56.641Z,1014.45
2017-03-31T09:06:05.630Z,1014.48
2017-03-31T09:07:14.683Z,1014.43
2017-03-31T09:08:23.944Z,1014.42
2017-03-31T09:09:32.905Z,1014.41
2017-03-31T09:10:41.870Z,1014.44
2017-03-31T09:11:50.924Z,1014.38
2017-03-31T09:12:59.886Z,1014.41
2017-03-31T09:14:09.114Z,1014.37
2017-03-31T09:15:18.081Z,1014.35
2017-03-31T09:16:27.041Z,1014.31
2017-03-31T09:17:36.007Z,1014.38
2017-03-31T09:18:44.967Z,1014.33
2017-03-31T09:19:54.174Z,1014.34
2017-03-31T09:21:03.464Z,1014.33
2017-03-31T09:22:12.520Z,1014.38
2017-03-31T09:23:21.478Z,1014.33
2017-03-31T09:24:30.436Z,1014.38
2017-03-31T09:25:39.645Z,1014.31
2017-03-31T09:26:48.607Z,1014.26
2017-03-31T09:27:57.576Z,1014.29
2017-03-31T09:29:06.632Z,1014.28
2017-03-31T09:30:15.590Z,1014.26
2017-03-31T09:31:24.801Z,1014.29
2017-03-31T09:32:33.757Z,1014.21
2017-03-31T09:33:42.719Z,1014.23
2017-03-31T09:34:51.679Z,1014.2
2017-03-31T09:36:01.374Z,1014.21
2017-03-31T09:37:10.581Z,1014.2
2017-03-31T09:38:19.539Z,1014.18
2017-03-31T09:39:28.499Z,1014.18
2017-03-31T09:40:37.472Z,1014.16
2017-03-31T09:41:46.432Z,1014.07
2017-03-31T09:42:55.679Z,1014.04
2017-03-31T09:44:04.658Z,1014.07
2017-03-31T09:45:13.620Z,1014.04
2017-03-31T09:46:22.592Z,1014.01
2017-03-31T09:47:31.642Z,1013.96
2017-03-31T09:48:40.853Z,1014.02
2017-03-31T09:49:49.905Z,1013.98
2017-03-31T09:50:59.237Z,1014
2017-03-31T09:52:08.205Z,1014
2017-03-31T09:53:17.250Z,1014.01
2017-03-31T09:54:26.464Z,1013.95
2017-03-31T09:55:35.428Z,1013.96
2017-03-31T09:56:44.397Z,1013.95
2017-03-31T09:57:53.360Z,1013.93
2017-03-31T09:59:02.324Z,1013.94
2017-03-31T10:00:11.535Z,1013.9
2017-03-31T10:01:20.500Z,1013.91
2017-03-31T10:02:29.467Z,1013.9
2017-03-31T10:03:38.428Z,1013.93
2017-03-31T10:04:47.392Z,1013.9
2017-03-31T10:05:56.607Z,1013.9
2017-03-31T10:07:05.572Z,1013.87
2017-03-31T10:08:14.618Z,1013.86
2017-03-31T10:09:23.672Z,1013.85
2017-03-31T10:10:32.634Z,1013.8
2017-03-31T10:11:41.848Z,1013.78
2017-03-31T10:12:50.811Z,1013.81
2017-03-31T10:13:59.858Z,1013.78
2017-03-31T10:15:08.820Z,1013.75
2017-03-31T10:16:17.788Z,1013.72
2017-03-31T10:17:27.001Z,1013.73
2017-03-31T10:18:35.957Z,1013.71
2017-03-31T10:19:45.004Z,1013.65
2017-03-31T10:20:53.961Z,1013.66
2017-03-31T10:22:02.956Z,1013.67
2017-03-31T10:23:12.175Z,1013.61
2017-03-31T10:24:21.141Z,1013.57
2017-03-31T10:25:30.099Z,1013.54
2017-03-31T10:26:39.064Z,1013.52
2017-03-31T10:27:48.024Z,1013.56
2017-03-31T10:28:57.238Z,1013.47
2017-03-31T10:30:06.291Z,1013.52
2017-03-31T10:31:15.253Z,1013.47
2017-03-31T10:32:24.216Z,1013.54
2017-03-31T10:33:33.184Z,1013.4
2017-03-31T10:34:42.398Z,1013.51
2017-03-31T10:35:51.360Z,1013.46
2017-03-31T10:37:00.327Z,1013.48
2017-03-31T10:38:09.291Z,1013.4
2017-03-31T10:39:18.256Z,1013.45
2017-03-31T10:40:27.470Z,1013.39
2017-03-31T10:41:36.431Z,1013.38
2017-03-31T10:42:45.392Z,1013.4
2017-03-31T10:43:54.441Z,1013.38
2017-03-31T10:45:03.495Z,1013.33
2017-03-31T10:46:12.711Z,1013.36
2017-03-31T10:47:21.675Z,1013.34
2017-03-31T10:48:30.639Z,1013.33
2017-03-31T10:49:39.604Z,1013.33
2017-03-31T10:50:48.568Z,1013.28
2017-03-31T10:51:57.839Z,1013.24
2017-03-31T10:53:06.808Z,1013.26
2017-03-31T10:54:15.812Z,1013.21
2017-03-31T10:55:24.774Z,1013.18
2017-03-31T10:56:33.733Z,1013.2
2017-03-31T10:57:42.945Z,1013.14
2017-03-31T10:58:51.905Z,1013.08
2017-03-31T11:00:00.946Z,1013.08
2017-03-31T11:01:10.008Z,1013.18
2017-03-31T11:02:18.975Z,1013.1
2017-03-31T11:03:28.186Z,1013.04
2017-03-31T11:04:37.154Z,1013.04
2017-03-31T11:05:46.118Z,1013.04
2017-03-31T11:06:55.079Z,1013.02
2017-03-31T11:08:04.044Z,1012.98
2017-03-31T11:09:13.257Z,1012.96
2017-03-31T11:10:22.225Z,1012.89
2017-03-31T11:11:31.196Z,1012.92
2017-03-31T11:12:40.158Z,1012.92
2017-03-31T11:13:49.118Z,1012.85
2017-03-31T11:14:58.330Z,1012.85
2017-03-31T11:16:07.293Z,1012.84
2017-03-31T11:17:16.256Z,1012.83
2017-03-31T11:18:25.223Z,1012.79
2017-03-31T11:19:34.182Z,1012.77
2017-03-31T11:20:43.393Z,1012.74
2017-03-31T11:21:52.352Z,1012.77
2017-03-31T11:23:01.313Z,1012.72
2017-03-31T11:24:10.278Z,1012.66
2017-03-31T11:25:19.240Z,1012.74
2017-03-31T11:26:28.455Z,1012.67
2017-03-31T11:27:37.418Z,1012.69
2017-03-31T11:28:46.380Z,1012.66
2017-03-31T11:29:55.346Z,1012.65
2017-03-31T11:31:04.308Z,1012.58
2017-03-31T11:32:13.523Z,1012.55
2017-03-31T11:33:22.489Z,1012.53
2017-03-31T11:34:31.452Z,1012.62
2017-03-31T11:35:40.418Z,1012.51
2017-03-31T11:36:49.381Z,1012.55
2017-03-31T11:37:58.728Z,1012.5
2017-03-31T11:39:07.687Z,1012.51
2017-03-31T11:40:16.650Z,1012.45
2017-03-31T11:41:25.618Z,1012.46
2017-03-31T11:42:34.584Z,1012.46
2017-03-31T11:43:43.790Z,1012.45
2017-03-31T11:44:52.754Z,1012.39
2017-03-31T11:46:01.722Z,1012.33
2017-03-31T11:47:10.688Z,1012.33
2017-03-31T11:48:19.741Z,1012.28
2017-03-31T11:49:28.955Z,1012.33
2017-03-31T11:50:37.915Z,1012.25
2017-03-31T11:51:46.880Z,1012.23
2017-03-31T11:52:55.934Z,1012.15
2017-03-31T11:54:04.895Z,1012.14
2017-03-31T11:55:14.194Z,1012.28
2017-03-31T11:56:23.155Z,1012.12
2017-03-31T11:57:32.121Z,1012.15
2017-03-31T11:58:41.083Z,1012.09
2017-03-31T11:59:50.045Z,1012.1
2017-03-31T12:00:59.350Z,1012.03
2017-03-31T12:02:08.308Z,1012.1
2017-03-31T12:03:17.270Z,1012.02
2017-03-31T12:04:26.232Z,1012.05
2017-03-31T12:05:35.194Z,1012.04
2017-03-31T12:06:44.412Z,1012.09
2017-03-31T12:07:53.401Z,1012.05
2017-03-31T12:09:02.367Z,1011.99
2017-03-31T12:10:11.329Z,1011.95
2017-03-31T12:11:20.289Z,1011.93
2017-03-31T12:12:29.506Z,1011.96
2017-03-31T12:13:38.467Z,1011.9
2017-03-31T12:14:47.519Z,1011.98
2017-03-31T12:15:56.655Z,1011.82
2017-03-31T12:17:05.617Z,1011.89
2017-03-31T12:18:14.885Z,1011.79
2017-03-31T12:19:23.845Z,1011.71
2017-03-31T12:20:32.809Z,1011.71
2017-03-31T12:21:41.777Z,1011.69
2017-03-31T12:22:50.744Z,1011.68
2017-03-31T12:23:59.963Z,1011.65
2017-03-31T12:25:09.335Z,1011.65
2017-03-31T12:26:18.305Z,1011.65
2017-03-31T12:27:27.308Z,1011.63
2017-03-31T12:28:36.313Z,1011.61
2017-03-31T12:29:45.526Z,1011.6
2017-03-31T12:30:54.484Z,1011.61
2017-03-31T12:32:03.451Z,1011.6
2017-03-31T12:33:12.411Z,1011.56
2017-03-31T12:34:21.697Z,1011.59
2017-03-31T12:35:30.908Z,1011.59
2017-03-31T12:36:39.872Z,1011.59
2017-03-31T12:37:48.834Z,1011.57
2017-03-31T12:38:58.125Z,1011.54
2017-03-31T12:40:07.089Z,1011.56
2017-03-31T12:41:16.357Z,1011.51
2017-03-31T12:42:25.325Z,1011.49
2017-03-31T12:43:34.290Z,1011.45
2017-03-31T12:44:43.249Z,1011.45
2017-03-31T12:45:52.212Z,1011.46
2017-03-31T12:47:01.426Z,1011.47
2017-03-31T12:48:10.388Z,1011.48
2017-03-31T12:49:19.443Z,1011.46
2017-03-31T12:50:28.406Z,1011.44
2017-03-31T12:51:37.363Z,1011.39
2017-03-31T12:52:46.585Z,1011.44
2017-03-31T12:53:55.543Z,1011.38
2017-03-31T12:55:04.502Z,1011.43
2017-03-31T12:56:13.554Z,1011.37
2017-03-31T12:57:22.555Z,1011.38
2017-03-31T12:58:31.776Z,1011.31
2017-03-31T12:59:40.743Z,1011.33
2017-03-31T13:00:49.795Z,1011.29
2017-03-31T13:01:58.763Z,1011.29
2017-03-31T13:03:07.726Z,1011.22
2017-03-31T13:04:16.940Z,1011.22
2017-03-31T13:05:25.935Z,1011.23
2017-03-31T13:06:34.893Z,1011.18
2017-03-31T13:07:43.945Z,1011.22
2017-03-31T13:08:52.916Z,1011.13
2017-03-31T13:10:02.222Z,1011.16
2017-03-31T13:11:11.190Z,1011.22
2017-03-31T13:12:20.159Z,1011.19
2017-03-31T13:13:29.137Z,1011.16
2017-03-31T13:14:38.104Z,1011.09
2017-03-31T13:15:47.410Z,1011.09
2017-03-31T13:16:56.701Z,1011.09
2017-03-31T13:18:05.664Z,1011
2017-03-31T13:19:14.627Z,1011.05
2017-03-31T13:20:23.591Z,1010.98
2017-03-31T13:21:32.805Z,1011.05
2017-03-31T13:22:41.770Z,1010.93
2017-03-31T13:23:50.727Z,1011
2017-03-31T13:24:59.691Z,1010.95
2017-03-31T13:26:08.656Z,1010.93
2017-03-31T13:27:18.193Z,1010.93
2017-03-31T13:28:27.159Z,1010.93
2017-03-31T13:29:36.121Z,1010.93
2017-03-31T13:30:45.091Z,1010.88
2017-03-31T13:31:54.051Z,1010.88
2017-03-31T13:33:03.406Z,1010.86
2017-03-31T13:34:12.369Z,1010.84
2017-03-31T13:35:21.366Z,1010.82
2017-03-31T13:36:30.334Z,1010.8
2017-03-31T13:37:39.300Z,1010.77
2017-03-31T13:38:48.526Z,1010.82
2017-03-31T13:39:57.489Z,1010.75
2017-03-31T13:41:06.455Z,1010.76
2017-03-31T13:42:15.416Z,1010.77
2017-03-31T13:43:24.378Z,1010.72
2017-03-31T13:44:33.593Z,1010.68
2017-03-31T13:45:42.554Z,1010.68
2017-03-31T13:46:51.513Z,1010.63
2017-03-31T13:48:00.484Z,1010.63
2017-03-31T13:49:09.448Z,1010.57
2017-03-31T13:50:18.659Z,1010.58
2017-03-31T13:51:27.628Z,1010.56
2017-03-31T13:52:36.588Z,1010.59
2017-03-31T13:53:45.555Z,1010.55
2017-03-31T13:54:54.520Z,1010.54
2017-03-31T13:56:03.742Z,1010.48
2017-03-31T13:57:12.708Z,1010.45
2017-03-31T13:58:21.760Z,1010.4